sensor_id;sensor_type;location;lat;lon;timestamp;temperature;humidity
24260;DHT22;12384;48.112;18.418;2022-08-16T00:00:18;24.20;43.90
24260;DHT22;12384;48.112;18.418;2022-08-16T00:02:49;24.10;43.80
24260;DHT22;12384;48.112;18.418;2022-08-16T00:05:18;24.10;44.00
24260;DHT22;12384;48.112;18.418;2022-08-16T00:07:49;24.00;44.20
24260;DHT22;12384;48.112;18.418;2022-08-16T00:10:24;24.00;44.40
24260;DHT22;12384;48.112;18.418;2022-08-16T00:12:55;24.00;44.80
24260;DHT22;12384;48.112;18.418;2022-08-16T00:15:27;23.90;44.50
24260;DHT22;12384;48.112;18.418;2022-08-16T00:18:18;23.90;44.60
24260;DHT22;12384;48.112;18.418;2022-08-16T00:20:55;23.80;44.40
24260;DHT22;12384;48.112;18.418;2022-08-16T00:23:26;23.80;44.50
24260;DHT22;12384;48.112;18.418;2022-08-16T00:26:12;23.80;44.60
24260;DHT22;12384;48.112;18.418;2022-08-16T00:29:00;23.70;44.60
24260;DHT22;12384;48.112;18.418;2022-08-16T00:31:31;23.70;44.80
24260;DHT22;12384;48.112;18.418;2022-08-16T00:34:21;23.60;45.00
24260;DHT22;12384;48.112;18.418;2022-08-16T00:37:10;23.60;45.00
24260;DHT22;12384;48.112;18.418;2022-08-16T00:39:45;23.50;45.40
24260;DHT22;12384;48.112;18.418;2022-08-16T00:42:27;23.50;45.30
24260;DHT22;12384;48.112;18.418;2022-08-16T00:45:03;23.40;45.30
24260;DHT22;12384;48.112;18.418;2022-08-16T00:47:40;23.40;45.40
24260;DHT22;12384;48.112;18.418;2022-08-16T00:50:17;23.40;45.60
24260;DHT22;12384;48.112;18.418;2022-08-16T00:53:04;23.30;45.80
24260;DHT22;12384;48.112;18.418;2022-08-16T00:55:37;23.30;45.90
24260;DHT22;12384;48.112;18.418;2022-08-16T00:58:08;23.20;46.20
24260;DHT22;12384;48.112;18.418;2022-08-16T01:00:43;23.20;46.40
24260;DHT22;12384;48.112;18.418;2022-08-16T01:03:23;23.10;46.20
24260;DHT22;12384;48.112;18.418;2022-08-16T01:05:58;23.10;46.00
24260;DHT22;12384;48.112;18.418;2022-08-16T01:08:53;23.10;46.20
24260;DHT22;12384;48.112;18.418;2022-08-16T01:11:27;23.00;46.10
24260;DHT22;12384;48.112;18.418;2022-08-16T01:14:03;22.90;46.10
24260;DHT22;12384;48.112;18.418;2022-08-16T01:16:33;22.90;46.30
24260;DHT22;12384;48.112;18.418;2022-08-16T01:19:07;22.90;46.30
24260;DHT22;12384;48.112;18.418;2022-08-16T01:21:47;22.80;46.30
24260;DHT22;12384;48.112;18.418;2022-08-16T01:24:26;22.80;46.30
24260;DHT22;12384;48.112;18.418;2022-08-16T01:27:18;22.80;46.30
24260;DHT22;12384;48.112;18.418;2022-08-16T01:29:53;22.70;46.70
24260;DHT22;12384;48.112;18.418;2022-08-16T01:32:28;22.60;46.60
24260;DHT22;12384;48.112;18.418;2022-08-16T01:35:05;22.60;46.60
24260;DHT22;12384;48.112;18.418;2022-08-16T01:37:46;22.50;46.60
24260;DHT22;12384;48.112;18.418;2022-08-16T01:40:26;22.50;46.70
24260;DHT22;12384;48.112;18.418;2022-08-16T01:42:56;22.40;46.90
24260;DHT22;12384;48.112;18.418;2022-08-16T01:45:25;22.30;46.80
24260;DHT22;12384;48.112;18.418;2022-08-16T01:48:11;22.30;46.90
24260;DHT22;12384;48.112;18.418;2022-08-16T01:50:50;22.20;46.90
24260;DHT22;12384;48.112;18.418;2022-08-16T01:53:40;22.10;47.00
24260;DHT22;12384;48.112;18.418;2022-08-16T01:56:39;22.10;47.20
24260;DHT22;12384;48.112;18.418;2022-08-16T01:59:11;22.00;47.30
24260;DHT22;12384;48.112;18.418;2022-08-16T02:01:45;22.00;47.40
24260;DHT22;12384;48.112;18.418;2022-08-16T02:04:19;21.90;47.60
24260;DHT22;12384;48.112;18.418;2022-08-16T02:07:09;21.90;48.40
24260;DHT22;12384;48.112;18.418;2022-08-16T02:09:40;21.80;47.90
24260;DHT22;12384;48.112;18.418;2022-08-16T02:12:26;21.80;48.20
24260;DHT22;12384;48.112;18.418;2022-08-16T02:15:16;21.80;48.20
24260;DHT22;12384;48.112;18.418;2022-08-16T02:17:53;21.70;48.30
24260;DHT22;12384;48.112;18.418;2022-08-16T02:20:23;21.70;48.30
24260;DHT22;12384;48.112;18.418;2022-08-16T02:22:54;21.70;48.50
24260;DHT22;12384;48.112;18.418;2022-08-16T02:25:23;21.70;48.60
24260;DHT22;12384;48.112;18.418;2022-08-16T02:28:15;21.60;48.70
24260;DHT22;12384;48.112;18.418;2022-08-16T02:30:46;21.60;48.70
24260;DHT22;12384;48.112;18.418;2022-08-16T02:33:18;21.50;48.90
24260;DHT22;12384;48.112;18.418;2022-08-16T02:36:11;21.50;48.80
24260;DHT22;12384;48.112;18.418;2022-08-16T02:39:00;21.50;48.80
24260;DHT22;12384;48.112;18.418;2022-08-16T02:41:29;21.40;48.90
24260;DHT22;12384;48.112;18.418;2022-08-16T02:44:06;21.40;49.20
24260;DHT22;12384;48.112;18.418;2022-08-16T02:46:35;21.30;49.30
24260;DHT22;12384;48.112;18.418;2022-08-16T02:49:05;21.30;49.20
24260;DHT22;12384;48.112;18.418;2022-08-16T02:51:36;21.30;49.40
24260;DHT22;12384;48.112;18.418;2022-08-16T02:54:07;21.30;49.50
24260;DHT22;12384;48.112;18.418;2022-08-16T02:56:36;21.30;49.70
24260;DHT22;12384;48.112;18.418;2022-08-16T02:59:07;21.30;49.70
24260;DHT22;12384;48.112;18.418;2022-08-16T03:01:41;21.20;50.00
24260;DHT22;12384;48.112;18.418;2022-08-16T03:04:21;21.20;50.10
24260;DHT22;12384;48.112;18.418;2022-08-16T03:07:10;21.20;50.00
24260;DHT22;12384;48.112;18.418;2022-08-16T03:09:43;21.20;50.30
24260;DHT22;12384;48.112;18.418;2022-08-16T03:12:17;21.20;50.30
24260;DHT22;12384;48.112;18.418;2022-08-16T03:14:58;21.20;50.50
24260;DHT22;12384;48.112;18.418;2022-08-16T03:17:29;21.20;50.40
24260;DHT22;12384;48.112;18.418;2022-08-16T03:20:01;21.20;50.70
24260;DHT22;12384;48.112;18.418;2022-08-16T03:22:35;21.20;50.80
24260;DHT22;12384;48.112;18.418;2022-08-16T03:25:15;21.20;50.70
24260;DHT22;12384;48.112;18.418;2022-08-16T03:27:54;21.20;51.30
24260;DHT22;12384;48.112;18.418;2022-08-16T03:30:30;21.20;50.60
24260;DHT22;12384;48.112;18.418;2022-08-16T03:33:04;21.30;50.70
24260;DHT22;12384;48.112;18.418;2022-08-16T03:35:40;21.30;50.80
24260;DHT22;12384;48.112;18.418;2022-08-16T03:38:28;21.30;50.90
24260;DHT22;12384;48.112;18.418;2022-08-16T03:41:11;21.30;50.80
24260;DHT22;12384;48.112;18.418;2022-08-16T03:43:55;21.30;51.00
24260;DHT22;12384;48.112;18.418;2022-08-16T03:46:30;21.30;51.00
24260;DHT22;12384;48.112;18.418;2022-08-16T03:49:18;21.30;51.20
24260;DHT22;12384;48.112;18.418;2022-08-16T03:51:51;21.30;51.00
24260;DHT22;12384;48.112;18.418;2022-08-16T03:54:24;21.30;51.00
24260;DHT22;12384;48.112;18.418;2022-08-16T03:56:55;21.30;51.10
24260;DHT22;12384;48.112;18.418;2022-08-16T03:59:29;21.30;51.10
24260;DHT22;12384;48.112;18.418;2022-08-16T04:02:06;21.40;51.10
24260;DHT22;12384;48.112;18.418;2022-08-16T04:04:50;21.40;51.10
24260;DHT22;12384;48.112;18.418;2022-08-16T04:07:23;21.40;51.20
24260;DHT22;12384;48.112;18.418;2022-08-16T04:10:00;21.40;51.30
24260;DHT22;12384;48.112;18.418;2022-08-16T04:12:50;21.40;51.30
24260;DHT22;12384;48.112;18.418;2022-08-16T04:15:32;21.50;51.40
24260;DHT22;12384;48.112;18.418;2022-08-16T04:18:14;21.50;51.40
24260;DHT22;12384;48.112;18.418;2022-08-16T04:20:44;21.50;51.30
24260;DHT22;12384;48.112;18.418;2022-08-16T04:23:13;21.60;51.30
24260;DHT22;12384;48.112;18.418;2022-08-16T04:25:44;21.60;51.40
24260;DHT22;12384;48.112;18.418;2022-08-16T04:28:14;21.70;51.40
24260;DHT22;12384;48.112;18.418;2022-08-16T04:31:03;21.70;51.40
24260;DHT22;12384;48.112;18.418;2022-08-16T04:33:40;21.80;51.70
24260;DHT22;12384;48.112;18.418;2022-08-16T04:36:21;21.80;51.60
24260;DHT22;12384;48.112;18.418;2022-08-16T04:38:51;21.90;51.60
24260;DHT22;12384;48.112;18.418;2022-08-16T04:41:21;22.00;51.70
24260;DHT22;12384;48.112;18.418;2022-08-16T04:44:06;22.10;51.80
24260;DHT22;12384;48.112;18.418;2022-08-16T04:46:55;22.40;51.80
24260;DHT22;12384;48.112;18.418;2022-08-16T04:49:31;22.60;51.60
24260;DHT22;12384;48.112;18.418;2022-08-16T04:52:13;22.70;51.50
24260;DHT22;12384;48.112;18.418;2022-08-16T04:55:08;22.70;51.40
24260;DHT22;12384;48.112;18.418;2022-08-16T04:57:39;22.90;51.40
24260;DHT22;12384;48.112;18.418;2022-08-16T05:00:11;22.90;51.40
24260;DHT22;12384;48.112;18.418;2022-08-16T05:03:13;23.00;51.30
24260;DHT22;12384;48.112;18.418;2022-08-16T05:05:48;23.10;51.30
24260;DHT22;12384;48.112;18.418;2022-08-16T05:08:31;23.20;51.30
24260;DHT22;12384;48.112;18.418;2022-08-16T05:11:15;23.30;51.40
24260;DHT22;12384;48.112;18.418;2022-08-16T05:13:48;23.70;51.90
24260;DHT22;12384;48.112;18.418;2022-08-16T05:16:24;24.20;52.00
24260;DHT22;12384;48.112;18.418;2022-08-16T05:19:10;24.70;51.50
24260;DHT22;12384;48.112;18.418;2022-08-16T05:22:03;25.20;51.10
24260;DHT22;12384;48.112;18.418;2022-08-16T05:24:44;25.60;50.20
24260;DHT22;12384;48.112;18.418;2022-08-16T05:27:13;25.90;49.70
24260;DHT22;12384;48.112;18.418;2022-08-16T05:29:42;26.30;49.50
24260;DHT22;12384;48.112;18.418;2022-08-16T05:32:28;26.80;48.90
24260;DHT22;12384;48.112;18.418;2022-08-16T05:35:02;27.30;48.30
24260;DHT22;12384;48.112;18.418;2022-08-16T05:37:45;27.80;47.80
24260;DHT22;12384;48.112;18.418;2022-08-16T05:40:15;28.50;47.40
24260;DHT22;12384;48.112;18.418;2022-08-16T05:42:47;29.10;46.70
24260;DHT22;12384;48.112;18.418;2022-08-16T05:45:19;29.80;46.20
24260;DHT22;12384;48.112;18.418;2022-08-16T05:47:52;30.30;45.30
24260;DHT22;12384;48.112;18.418;2022-08-16T05:50:35;30.60;43.90
24260;DHT22;12384;48.112;18.418;2022-08-16T05:53:09;30.60;43.00
24260;DHT22;12384;48.112;18.418;2022-08-16T05:55:52;30.70;42.90
24260;DHT22;12384;48.112;18.418;2022-08-16T05:58:21;30.90;42.70
24260;DHT22;12384;48.112;18.418;2022-08-16T06:01:00;30.90;41.90
24260;DHT22;12384;48.112;18.418;2022-08-16T06:03:30;30.90;41.40
24260;DHT22;12384;48.112;18.418;2022-08-16T06:06:04;30.80;40.90
24260;DHT22;12384;48.112;18.418;2022-08-16T06:08:37;30.60;40.70
24260;DHT22;12384;48.112;18.418;2022-08-16T06:11:13;30.40;40.80
24260;DHT22;12384;48.112;18.418;2022-08-16T06:13:52;30.20;41.10
24260;DHT22;12384;48.112;18.418;2022-08-16T06:16:33;30.10;41.20
24260;DHT22;12384;48.112;18.418;2022-08-16T06:19:03;30.00;41.20
24260;DHT22;12384;48.112;18.418;2022-08-16T06:21:36;30.00;41.20
24260;DHT22;12384;48.112;18.418;2022-08-16T06:24:07;29.80;41.10
24260;DHT22;12384;48.112;18.418;2022-08-16T06:26:55;29.70;41.20
24260;DHT22;12384;48.112;18.418;2022-08-16T06:29:30;29.60;41.20
24260;DHT22;12384;48.112;18.418;2022-08-16T06:32:00;29.50;41.20
24260;DHT22;12384;48.112;18.418;2022-08-16T06:34:30;29.40;41.60
24260;DHT22;12384;48.112;18.418;2022-08-16T06:37:19;29.50;42.10
24260;DHT22;12384;48.112;18.418;2022-08-16T06:39:50;29.90;42.40
24260;DHT22;12384;48.112;18.418;2022-08-16T06:42:31;30.50;42.80
24260;DHT22;12384;48.112;18.418;2022-08-16T06:45:32;31.10;42.60
24260;DHT22;12384;48.112;18.418;2022-08-16T06:48:13;32.10;42.10
24260;DHT22;12384;48.112;18.418;2022-08-16T06:50:45;33.00;41.00
24260;DHT22;12384;48.112;18.418;2022-08-16T06:53:16;33.70;40.00
24260;DHT22;12384;48.112;18.418;2022-08-16T06:55:59;34.30;39.30
24260;DHT22;12384;48.112;18.418;2022-08-16T06:58:40;35.10;38.60
24260;DHT22;12384;48.112;18.418;2022-08-16T07:01:14;35.70;37.70
24260;DHT22;12384;48.112;18.418;2022-08-16T07:03:51;36.30;36.60
24260;DHT22;12384;48.112;18.418;2022-08-16T07:06:30;36.90;35.80
24260;DHT22;12384;48.112;18.418;2022-08-16T07:09:07;37.40;35.00
24260;DHT22;12384;48.112;18.418;2022-08-16T07:11:42;37.80;34.10
24260;DHT22;12384;48.112;18.418;2022-08-16T07:14:29;38.30;33.30
24260;DHT22;12384;48.112;18.418;2022-08-16T07:16:59;38.70;32.50
24260;DHT22;12384;48.112;18.418;2022-08-16T07:19:35;39.00;31.70
24260;DHT22;12384;48.112;18.418;2022-08-16T07:22:30;39.30;31.10
24260;DHT22;12384;48.112;18.418;2022-08-16T07:25:13;39.70;30.80
24260;DHT22;12384;48.112;18.418;2022-08-16T07:27:45;40.00;30.10
24260;DHT22;12384;48.112;18.418;2022-08-16T07:30:19;40.40;29.80
24260;DHT22;12384;48.112;18.418;2022-08-16T07:33:13;40.70;29.90
24260;DHT22;12384;48.112;18.418;2022-08-16T07:36:05;40.90;29.10
24260;DHT22;12384;48.112;18.418;2022-08-16T07:38:41;41.20;28.90
24260;DHT22;12384;48.112;18.418;2022-08-16T07:41:12;41.50;28.60
24260;DHT22;12384;48.112;18.418;2022-08-16T07:43:50;41.70;28.20
24260;DHT22;12384;48.112;18.418;2022-08-16T07:46:20;41.90;27.50
24260;DHT22;12384;48.112;18.418;2022-08-16T07:49:26;42.10;27.40
24260;DHT22;12384;48.112;18.418;2022-08-16T07:52:01;42.40;27.20
24260;DHT22;12384;48.112;18.418;2022-08-16T07:54:48;42.50;27.00
24260;DHT22;12384;48.112;18.418;2022-08-16T07:57:20;42.70;26.70
24260;DHT22;12384;48.112;18.418;2022-08-16T07:59:53;42.80;26.60
24260;DHT22;12384;48.112;18.418;2022-08-16T08:02:23;42.90;26.10
24260;DHT22;12384;48.112;18.418;2022-08-16T08:04:56;43.00;26.10
24260;DHT22;12384;48.112;18.418;2022-08-16T08:07:28;43.00;25.90
24260;DHT22;12384;48.112;18.418;2022-08-16T08:10:01;43.00;25.80
24260;DHT22;12384;48.112;18.418;2022-08-16T08:12:32;43.20;25.90
24260;DHT22;12384;48.112;18.418;2022-08-16T08:15:05;43.40;25.90
24260;DHT22;12384;48.112;18.418;2022-08-16T08:17:38;43.50;25.60
24260;DHT22;12384;48.112;18.418;2022-08-16T08:20:18;43.60;25.40
24260;DHT22;12384;48.112;18.418;2022-08-16T08:22:59;43.70;25.20
24260;DHT22;12384;48.112;18.418;2022-08-16T08:25:36;43.80;25.00
24260;DHT22;12384;48.112;18.418;2022-08-16T08:28:23;43.80;24.90
24260;DHT22;12384;48.112;18.418;2022-08-16T08:31:00;43.90;24.70
24260;DHT22;12384;48.112;18.418;2022-08-16T08:33:39;44.00;24.70
24260;DHT22;12384;48.112;18.418;2022-08-16T08:36:19;44.00;24.30
24260;DHT22;12384;48.112;18.418;2022-08-16T08:39:03;44.20;24.40
24260;DHT22;12384;48.112;18.418;2022-08-16T08:41:40;44.40;24.40
24260;DHT22;12384;48.112;18.418;2022-08-16T08:44:14;44.50;24.20
24260;DHT22;12384;48.112;18.418;2022-08-16T08:47:04;44.60;24.10
24260;DHT22;12384;48.112;18.418;2022-08-16T08:49:38;44.80;23.80
24260;DHT22;12384;48.112;18.418;2022-08-16T08:52:23;44.80;23.40
24260;DHT22;12384;48.112;18.418;2022-08-16T08:55:05;45.00;23.70
24260;DHT22;12384;48.112;18.418;2022-08-16T08:57:38;45.10;23.40
24260;DHT22;12384;48.112;18.418;2022-08-16T09:00:27;45.20;23.30
24260;DHT22;12384;48.112;18.418;2022-08-16T09:03:01;45.30;23.30
24260;DHT22;12384;48.112;18.418;2022-08-16T09:05:34;45.30;23.10
24260;DHT22;12384;48.112;18.418;2022-08-16T09:08:06;45.50;23.10
24260;DHT22;12384;48.112;18.418;2022-08-16T09:11:02;45.60;23.40
24260;DHT22;12384;48.112;18.418;2022-08-16T09:13:36;45.70;22.80
24260;DHT22;12384;48.112;18.418;2022-08-16T09:16:15;45.70;22.50
24260;DHT22;12384;48.112;18.418;2022-08-16T09:19:06;45.90;22.30
24260;DHT22;12384;48.112;18.418;2022-08-16T09:21:40;45.90;21.90
24260;DHT22;12384;48.112;18.418;2022-08-16T09:24:11;45.90;22.00
24260;DHT22;12384;48.112;18.418;2022-08-16T09:27:00;46.00;22.00
24260;DHT22;12384;48.112;18.418;2022-08-16T09:29:29;46.00;21.60
24260;DHT22;12384;48.112;18.418;2022-08-16T09:32:14;46.00;21.60
24260;DHT22;12384;48.112;18.418;2022-08-16T09:34:58;46.10;22.00
24260;DHT22;12384;48.112;18.418;2022-08-16T09:37:28;46.10;21.10
24260;DHT22;12384;48.112;18.418;2022-08-16T09:40:04;46.00;20.90
24260;DHT22;12384;48.112;18.418;2022-08-16T09:42:53;46.00;21.00
24260;DHT22;12384;48.112;18.418;2022-08-16T09:45:26;46.00;21.00
24260;DHT22;12384;48.112;18.418;2022-08-16T09:47:57;46.00;20.90
24260;DHT22;12384;48.112;18.418;2022-08-16T09:50:27;46.00;20.90
24260;DHT22;12384;48.112;18.418;2022-08-16T09:53:08;45.90;21.00
24260;DHT22;12384;48.112;18.418;2022-08-16T09:55:44;46.00;21.10
24260;DHT22;12384;48.112;18.418;2022-08-16T09:58:17;46.10;21.10
24260;DHT22;12384;48.112;18.418;2022-08-16T10:01:06;46.20;21.70
24260;DHT22;12384;48.112;18.418;2022-08-16T10:03:38;46.20;21.00
24260;DHT22;12384;48.112;18.418;2022-08-16T10:06:28;46.40;21.00
24260;DHT22;12384;48.112;18.418;2022-08-16T10:09:00;46.50;20.70
24260;DHT22;12384;48.112;18.418;2022-08-16T10:11:33;46.50;20.40
24260;DHT22;12384;48.112;18.418;2022-08-16T10:14:19;46.40;20.30
24260;DHT22;12384;48.112;18.418;2022-08-16T10:17:00;46.30;20.40
24260;DHT22;12384;48.112;18.418;2022-08-16T10:19:29;46.30;20.50
24260;DHT22;12384;48.112;18.418;2022-08-16T10:22:00;46.20;20.60
24260;DHT22;12384;48.112;18.418;2022-08-16T10:24:32;46.30;20.70
24260;DHT22;12384;48.112;18.418;2022-08-16T10:27:00;46.30;20.60
24260;DHT22;12384;48.112;18.418;2022-08-16T10:29:49;46.30;20.50
24260;DHT22;12384;48.112;18.418;2022-08-16T10:32:28;46.30;20.10
24260;DHT22;12384;48.112;18.418;2022-08-16T10:34:59;46.40;20.10
24260;DHT22;12384;48.112;18.418;2022-08-16T10:37:30;46.40;20.10
24260;DHT22;12384;48.112;18.418;2022-08-16T10:40:04;46.40;20.10
24260;DHT22;12384;48.112;18.418;2022-08-16T10:42:54;46.30;19.90
24260;DHT22;12384;48.112;18.418;2022-08-16T10:45:23;46.20;20.10
24260;DHT22;12384;48.112;18.418;2022-08-16T10:47:54;46.20;20.20
24260;DHT22;12384;48.112;18.418;2022-08-16T10:50:31;46.10;20.30
24260;DHT22;12384;48.112;18.418;2022-08-16T10:53:03;46.00;20.00
24260;DHT22;12384;48.112;18.418;2022-08-16T10:55:34;45.90;20.20
24260;DHT22;12384;48.112;18.418;2022-08-16T10:58:12;45.80;20.30
24260;DHT22;12384;48.112;18.418;2022-08-16T11:00:44;45.80;20.40
24260;DHT22;12384;48.112;18.418;2022-08-16T11:03:13;45.70;20.30
24260;DHT22;12384;48.112;18.418;2022-08-16T11:06:04;45.60;20.20
24260;DHT22;12384;48.112;18.418;2022-08-16T11:08:39;45.60;20.30
24260;DHT22;12384;48.112;18.418;2022-08-16T11:11:12;45.50;20.20
24260;DHT22;12384;48.112;18.418;2022-08-16T11:13:46;45.50;20.30
24260;DHT22;12384;48.112;18.418;2022-08-16T11:16:26;45.50;20.20
24260;DHT22;12384;48.112;18.418;2022-08-16T11:19:15;45.40;20.10
24260;DHT22;12384;48.112;18.418;2022-08-16T11:21:44;45.40;20.20
24260;DHT22;12384;48.112;18.418;2022-08-16T11:24:35;45.30;20.20
24260;DHT22;12384;48.112;18.418;2022-08-16T11:27:13;45.10;20.00
24260;DHT22;12384;48.112;18.418;2022-08-16T11:30:03;45.10;20.10
24260;DHT22;12384;48.112;18.418;2022-08-16T11:32:38;45.00;20.30
24260;DHT22;12384;48.112;18.418;2022-08-16T11:35:12;45.00;20.20
24260;DHT22;12384;48.112;18.418;2022-08-16T11:37:45;44.90;20.10
24260;DHT22;12384;48.112;18.418;2022-08-16T11:40:39;44.90;20.20
24260;DHT22;12384;48.112;18.418;2022-08-16T11:43:12;44.70;19.90
24260;DHT22;12384;48.112;18.418;2022-08-16T11:45:44;44.70;20.00
24260;DHT22;12384;48.112;18.418;2022-08-16T11:48:21;44.50;19.60
24260;DHT22;12384;48.112;18.418;2022-08-16T11:50:50;44.50;20.00
24260;DHT22;12384;48.112;18.418;2022-08-16T11:53:19;44.50;19.80
24260;DHT22;12384;48.112;18.418;2022-08-16T11:55:50;44.60;20.00
24260;DHT22;12384;48.112;18.418;2022-08-16T11:58:21;44.80;20.00
24260;DHT22;12384;48.112;18.418;2022-08-16T12:00:53;44.90;19.80
24260;DHT22;12384;48.112;18.418;2022-08-16T12:03:23;45.00;19.20
24260;DHT22;12384;48.112;18.418;2022-08-16T12:06:07;45.10;19.50
24260;DHT22;12384;48.112;18.418;2022-08-16T12:08:56;45.30;19.50
24260;DHT22;12384;48.112;18.418;2022-08-16T12:11:29;45.40;19.80
24260;DHT22;12384;48.112;18.418;2022-08-16T12:14:00;45.50;19.60
24260;DHT22;12384;48.112;18.418;2022-08-16T12:16:31;45.50;18.60
24260;DHT22;12384;48.112;18.418;2022-08-16T12:19:03;45.70;19.50
24260;DHT22;12384;48.112;18.418;2022-08-16T12:21:32;45.80;19.20
24260;DHT22;12384;48.112;18.418;2022-08-16T12:24:21;46.00;19.20
24260;DHT22;12384;48.112;18.418;2022-08-16T12:26:52;46.10;18.90
24260;DHT22;12384;48.112;18.418;2022-08-16T12:29:21;46.30;18.80
24260;DHT22;12384;48.112;18.418;2022-08-16T12:31:55;46.50;18.70
24260;DHT22;12384;48.112;18.418;2022-08-16T12:34:44;46.50;18.50
24260;DHT22;12384;48.112;18.418;2022-08-16T12:37:19;46.60;18.60
24260;DHT22;12384;48.112;18.418;2022-08-16T12:39:52;46.70;18.70
24260;DHT22;12384;48.112;18.418;2022-08-16T12:42:24;46.80;18.70
24260;DHT22;12384;48.112;18.418;2022-08-16T12:45:04;47.00;18.40
24260;DHT22;12384;48.112;18.418;2022-08-16T12:47:34;47.20;18.40
24260;DHT22;12384;48.112;18.418;2022-08-16T12:50:40;47.30;17.90
24260;DHT22;12384;48.112;18.418;2022-08-16T12:53:15;47.20;17.90
24260;DHT22;12384;48.112;18.418;2022-08-16T12:55:47;47.20;18.00
24260;DHT22;12384;48.112;18.418;2022-08-16T12:58:20;47.10;17.80
24260;DHT22;12384;48.112;18.418;2022-08-16T13:01:09;46.80;17.60
24260;DHT22;12384;48.112;18.418;2022-08-16T13:03:40;46.30;17.60
24260;DHT22;12384;48.112;18.418;2022-08-16T13:06:10;45.90;17.80
24260;DHT22;12384;48.112;18.418;2022-08-16T13:08:47;45.50;18.20
24260;DHT22;12384;48.112;18.418;2022-08-16T13:11:19;45.30;18.50
24260;DHT22;12384;48.112;18.418;2022-08-16T13:13:51;45.20;18.80
24260;DHT22;12384;48.112;18.418;2022-08-16T13:16:21;45.30;18.90
24260;DHT22;12384;48.112;18.418;2022-08-16T13:18:53;45.40;18.90
24260;DHT22;12384;48.112;18.418;2022-08-16T13:21:22;45.50;18.80
24260;DHT22;12384;48.112;18.418;2022-08-16T13:23:53;45.50;18.10
24260;DHT22;12384;48.112;18.418;2022-08-16T13:26:22;45.50;18.20
24260;DHT22;12384;48.112;18.418;2022-08-16T13:28:54;45.50;18.40
24260;DHT22;12384;48.112;18.418;2022-08-16T13:31:23;45.60;18.40
24260;DHT22;12384;48.112;18.418;2022-08-16T13:33:52;45.70;18.50
24260;DHT22;12384;48.112;18.418;2022-08-16T13:36:25;45.80;18.50
24260;DHT22;12384;48.112;18.418;2022-08-16T13:39:14;45.90;18.10
24260;DHT22;12384;48.112;18.418;2022-08-16T13:41:43;45.80;17.90
24260;DHT22;12384;48.112;18.418;2022-08-16T13:44:21;45.90;18.10
24260;DHT22;12384;48.112;18.418;2022-08-16T13:47:10;46.00;18.00
24260;DHT22;12384;48.112;18.418;2022-08-16T13:49:39;46.00;17.70
24260;DHT22;12384;48.112;18.418;2022-08-16T13:52:10;46.00;17.70
24260;DHT22;12384;48.112;18.418;2022-08-16T13:54:39;45.90;17.70
24260;DHT22;12384;48.112;18.418;2022-08-16T13:57:09;45.80;17.80
24260;DHT22;12384;48.112;18.418;2022-08-16T13:59:39;45.80;17.80
24260;DHT22;12384;48.112;18.418;2022-08-16T14:02:11;45.50;17.70
24260;DHT22;12384;48.112;18.418;2022-08-16T14:04:41;45.00;17.60
24260;DHT22;12384;48.112;18.418;2022-08-16T14:07:13;44.40;17.60
24260;DHT22;12384;48.112;18.418;2022-08-16T14:09:50;43.70;17.80
24260;DHT22;12384;48.112;18.418;2022-08-16T14:12:23;42.80;18.00
24260;DHT22;12384;48.112;18.418;2022-08-16T14:14:54;42.20;18.50
24260;DHT22;12384;48.112;18.418;2022-08-16T14:17:24;41.60;19.10
24260;DHT22;12384;48.112;18.418;2022-08-16T14:19:54;41.00;19.50
24260;DHT22;12384;48.112;18.418;2022-08-16T14:22:28;40.60;19.90
24260;DHT22;12384;48.112;18.418;2022-08-16T14:25:13;40.20;20.20
24260;DHT22;12384;48.112;18.418;2022-08-16T14:27:45;39.80;20.50
24260;DHT22;12384;48.112;18.418;2022-08-16T14:30:20;39.40;20.90
24260;DHT22;12384;48.112;18.418;2022-08-16T14:32:50;39.10;21.20
24260;DHT22;12384;48.112;18.418;2022-08-16T14:35:24;38.90;21.70
24260;DHT22;12384;48.112;18.418;2022-08-16T14:38:13;38.60;21.80
24260;DHT22;12384;48.112;18.418;2022-08-16T14:40:45;38.30;21.90
24260;DHT22;12384;48.112;18.418;2022-08-16T14:43:21;38.00;21.90
24260;DHT22;12384;48.112;18.418;2022-08-16T14:45:52;37.60;22.10
24260;DHT22;12384;48.112;18.418;2022-08-16T14:48:21;37.40;22.30
24260;DHT22;12384;48.112;18.418;2022-08-16T14:50:52;37.10;22.50
24260;DHT22;12384;48.112;18.418;2022-08-16T14:53:23;36.90;23.20
24260;DHT22;12384;48.112;18.418;2022-08-16T14:55:52;36.80;22.90
24260;DHT22;12384;48.112;18.418;2022-08-16T14:58:22;36.70;23.10
24260;DHT22;12384;48.112;18.418;2022-08-16T15:01:04;36.50;23.00
24260;DHT22;12384;48.112;18.418;2022-08-16T15:03:37;36.40;23.30
24260;DHT22;12384;48.112;18.418;2022-08-16T15:06:10;36.20;23.50
24260;DHT22;12384;48.112;18.418;2022-08-16T15:08:40;36.20;23.70
24260;DHT22;12384;48.112;18.418;2022-08-16T15:11:12;36.10;23.80
24260;DHT22;12384;48.112;18.418;2022-08-16T15:13:40;35.90;23.90
24260;DHT22;12384;48.112;18.418;2022-08-16T15:16:11;35.90;24.10
24260;DHT22;12384;48.112;18.418;2022-08-16T15:18:39;35.90;24.10
24260;DHT22;12384;48.112;18.418;2022-08-16T15:21:12;35.80;24.10
24260;DHT22;12384;48.112;18.418;2022-08-16T15:23:41;35.80;24.30
24260;DHT22;12384;48.112;18.418;2022-08-16T15:26:10;35.70;24.30
24260;DHT22;12384;48.112;18.418;2022-08-16T15:28:59;35.70;24.40
24260;DHT22;12384;48.112;18.418;2022-08-16T15:31:31;35.70;24.40
24260;DHT22;12384;48.112;18.418;2022-08-16T15:34:01;35.70;24.60
24260;DHT22;12384;48.112;18.418;2022-08-16T15:36:29;35.60;24.80
24260;DHT22;12384;48.112;18.418;2022-08-16T15:38:58;35.60;25.30
24260;DHT22;12384;48.112;18.418;2022-08-16T15:42:04;35.50;25.40
24260;DHT22;12384;48.112;18.418;2022-08-16T15:44:37;35.50;25.60
24260;DHT22;12384;48.112;18.418;2022-08-16T15:47:20;35.30;25.50
24260;DHT22;12384;48.112;18.418;2022-08-16T15:49:53;35.20;25.50
24260;DHT22;12384;48.112;18.418;2022-08-16T15:52:25;35.00;25.70
24260;DHT22;12384;48.112;18.418;2022-08-16T15:54:57;34.90;25.90
24260;DHT22;12384;48.112;18.418;2022-08-16T15:57:39;34.70;26.00
24260;DHT22;12384;48.112;18.418;2022-08-16T16:00:09;34.50;26.20
24260;DHT22;12384;48.112;18.418;2022-08-16T16:03:01;34.30;26.40
24260;DHT22;12384;48.112;18.418;2022-08-16T16:05:35;34.10;26.60
24260;DHT22;12384;48.112;18.418;2022-08-16T16:08:05;33.90;26.80
24260;DHT22;12384;48.112;18.418;2022-08-16T16:10:39;33.80;26.90
24260;DHT22;12384;48.112;18.418;2022-08-16T16:13:10;33.60;26.90